sensor_id;sensor_type;location;lat;lon;timestamp;pressure;altitude;pressure_sealevel;temperature;humidity
20455;BME280;10386;54.314;10.022;2023-04-01T00:01:19;98319.88;;;8.81;100.00
20455;BME280;10386;54.314;10.022;2023-04-01T00:03:46;98324.22;;;8.74;100.00
20455;BME280;10386;54.314;10.022;2023-04-01T00:06:16;98316.44;;;8.71;100.00
20455;BME280;10386;54.314;10.022;2023-04-01T00:08:44;98323.69;;;8.70;100.00
20455;BME280;10386;54.314;10.022;2023-04-01T00:11:11;98325.88;;;8.67;100.00
20455;BME280;10386;54.314;10.022;2023-04-01T00:13:39;98327.66;;;8.58;100.00
20455;BME280;10386;54.314;10.022;2023-04-01T00:16:07;98322.22;;;8.76;100.00
20455;BME280;10386;54.314;10.022;2023-04-01T00:18:46;98327.94;;;8.73;100.00
20455;BME280;10386;54.314;10.022;2023-04-01T00:21:14;98330.91;;;8.62;100.00
20455;BME280;10386;54.314;10.022;2023-04-01T00:23:41;98339.66;;;8.56;100.00
20455;BME280;10386;54.314;10.022;2023-04-01T00:26:09;98341.34;;;8.57;100.00
20455;BME280;10386;54.314;10.022;2023-04-01T00:28:36;98342.41;;;8.64;100.00
20455;BME280;10386;54.314;10.022;2023-04-01T00:31:09;98340.97;;;8.34;100.00
20455;BME280;10386;54.314;10.022;2023-04-01T00:33:36;98342.19;;;8.40;100.00
20455;BME280;10386;54.314;10.022;2023-04-01T00:36:12;98362.91;;;8.31;100.00
20455;BME280;10386;54.314;10.022;2023-04-01T00:38:40;98364.38;;;8.26;100.00
20455;BME280;10386;54.314;10.022;2023-04-01T00:41:09;98363.66;;;8.24;100.00
20455;BME280;10386;54.314;10.022;2023-04-01T00:43:46;98364.53;;;8.24;100.00
20455;BME280;10386;54.314;10.022;2023-04-01T00:46:14;98363.84;;;8.23;100.00
20455;BME280;10386;54.314;10.022;2023-04-01T00:48:46;98369.94;;;8.24;100.00
20455;BME280;10386;54.314;10.022;2023-04-01T00:51:21;98358.47;;;8.13;100.00
20455;BME280;10386;54.314;10.022;2023-04-01T00:53:53;98377.69;;;8.10;100.00
20455;BME280;10386;54.314;10.022;2023-04-01T00:56:30;98370.72;;;8.08;100.00
20455;BME280;10386;54.314;10.022;2023-04-01T00:59:01;98382.31;;;8.00;100.00
20455;BME280;10386;54.314;10.022;2023-04-01T01:01:32;98383.06;;;7.93;100.00
20455;BME280;10386;54.314;10.022;2023-04-01T01:04:00;98376.28;;;7.89;100.00
20455;BME280;10386;54.314;10.022;2023-04-01T01:12:14;98390.25;;;7.84;100.00
20455;BME280;10386;54.314;10.022;2023-04-01T01:32:03;98398.63;;;7.54;100.00
20455;BME280;10386;54.314;10.022;2023-04-01T01:37:39;98408.91;;;7.41;100.00
20455;BME280;10386;54.314;10.022;2023-04-01T01:40:11;98421.88;;;7.38;100.00
20455;BME280;10386;54.314;10.022;2023-04-01T01:42:41;98428.28;;;7.37;100.00
20455;BME280;10386;54.314;10.022;2023-04-01T01:45:14;98425.41;;;7.38;100.00
20455;BME280;10386;54.314;10.022;2023-04-01T01:47:45;98429.38;;;7.44;100.00
20455;BME280;10386;54.314;10.022;2023-04-01T01:50:14;98434.38;;;7.39;100.00
20455;BME280;10386;54.314;10.022;2023-04-01T01:52:42;98424.72;;;7.36;100.00
20455;BME280;10386;54.314;10.022;2023-04-01T01:55:32;98436.97;;;7.31;100.00
20455;BME280;10386;54.314;10.022;2023-04-01T01:58:06;98438.97;;;7.29;100.00
20455;BME280;10386;54.314;10.022;2023-04-01T02:00:36;98442.09;;;7.24;100.00
20455;BME280;10386;54.314;10.022;2023-04-01T02:03:04;98455.59;;;7.15;100.00
20455;BME280;10386;54.314;10.022;2023-04-01T02:05:32;98465.28;;;6.98;100.00
20455;BME280;10386;54.314;10.022;2023-04-01T02:08:04;98462.56;;;7.08;100.00
20455;BME280;10386;54.314;10.022;2023-04-01T02:10:35;98466.81;;;7.10;100.00
20455;BME280;10386;54.314;10.022;2023-04-01T02:13:09;98469.81;;;7.07;100.00
20455;BME280;10386;54.314;10.022;2023-04-01T02:15:42;98470.34;;;7.11;100.00
20455;BME280;10386;54.314;10.022;2023-04-01T02:18:11;98476.34;;;7.05;100.00
20455;BME280;10386;54.314;10.022;2023-04-01T02:20:40;98479.59;;;6.99;100.00
20455;BME280;10386;54.314;10.022;2023-04-01T02:23:09;98488.16;;;6.94;100.00
20455;BME280;10386;54.314;10.022;2023-04-01T02:25:37;98493.13;;;6.89;100.00
20455;BME280;10386;54.314;10.022;2023-04-01T02:28:06;98494.13;;;6.88;100.00
20455;BME280;10386;54.314;10.022;2023-04-01T02:30:36;98496.81;;;6.88;100.00
20455;BME280;10386;54.314;10.022;2023-04-01T02:33:05;98505.44;;;6.92;100.00
20455;BME280;10386;54.314;10.022;2023-04-01T02:35:35;98517.78;;;6.76;100.00
20455;BME280;10386;54.314;10.022;2023-04-01T02:38:07;98526.59;;;6.59;100.00
20455;BME280;10386;54.314;10.022;2023-04-01T02:40:47;98541.06;;;6.58;100.00
20455;BME280;10386;54.314;10.022;2023-04-01T02:43:15;98543.78;;;6.67;100.00
20455;BME280;10386;54.314;10.022;2023-04-01T02:45:43;98550.13;;;6.57;100.00
20455;BME280;10386;54.314;10.022;2023-04-01T02:48:13;98562.06;;;6.54;100.00
20455;BME280;10386;54.314;10.022;2023-04-01T02:50:40;98556.94;;;6.61;100.00
20455;BME280;10386;54.314;10.022;2023-04-01T02:53:07;98566.88;;;6.60;100.00
20455;BME280;10386;54.314;10.022;2023-04-01T02:55:34;98582.44;;;6.38;100.00
20455;BME280;10386;54.314;10.022;2023-04-01T02:58:02;98586.00;;;6.38;100.00
20455;BME280;10386;54.314;10.022;2023-04-01T03:00:29;98583.09;;;6.30;100.00
20455;BME280;10386;54.314;10.022;2023-04-01T03:03:03;98589.47;;;6.29;100.00
20455;BME280;10386;54.314;10.022;2023-04-01T03:05:30;98586.94;;;6.28;100.00
20455;BME280;10386;54.314;10.022;2023-04-01T03:07:58;98597.72;;;6.28;100.00
20455;BME280;10386;54.314;10.022;2023-04-01T03:10:25;98608.78;;;6.25;100.00
20455;BME280;10386;54.314;10.022;2023-04-01T03:12:51;98600.41;;;6.28;100.00
20455;BME280;10386;54.314;10.022;2023-04-01T03:15:19;98601.53;;;6.25;100.00
20455;BME280;10386;54.314;10.022;2023-04-01T03:17:46;98618.22;;;6.10;100.00
20455;BME280;10386;54.314;10.022;2023-04-01T03:20:13;98619.19;;;6.09;100.00
20455;BME280;10386;54.314;10.022;2023-04-01T03:22:41;98628.81;;;6.02;100.00
20455;BME280;10386;54.314;10.022;2023-04-01T03:25:09;98634.63;;;6.07;100.00
20455;BME280;10386;54.314;10.022;2023-04-01T03:27:38;98639.56;;;6.02;100.00
20455;BME280;10386;54.314;10.022;2023-04-01T03:30:05;98646.94;;;6.00;100.00
20455;BME280;10386;54.314;10.022;2023-04-01T03:32:33;98658.47;;;5.91;100.00
20455;BME280;10386;54.314;10.022;2023-04-01T03:35:00;98660.66;;;5.97;100.00
20455;BME280;10386;54.314;10.022;2023-04-01T03:37:27;98673.19;;;6.07;100.00
20455;BME280;10386;54.314;10.022;2023-04-01T03:39:54;98664.19;;;5.97;100.00
20455;BME280;10386;54.314;10.022;2023-04-01T03:42:27;98672.44;;;5.96;100.00
20455;BME280;10386;54.314;10.022;2023-04-01T03:44:54;98692.31;;;5.84;100.00
20455;BME280;10386;54.314;10.022;2023-04-01T03:47:21;98686.81;;;5.85;100.00
20455;BME280;10386;54.314;10.022;2023-04-01T03:49:49;98687.19;;;5.81;100.00
20455;BME280;10386;54.314;10.022;2023-04-01T03:52:16;98701.09;;;5.86;100.00
20455;BME280;10386;54.314;10.022;2023-04-01T03:54:43;98712.41;;;5.80;100.00
20455;BME280;10386;54.314;10.022;2023-04-01T03:57:10;98709.69;;;5.80;100.00
20455;BME280;10386;54.314;10.022;2023-04-01T03:59:37;98728.28;;;5.83;100.00
20455;BME280;10386;54.314;10.022;2023-04-01T04:02:04;98716.31;;;5.76;100.00
20455;BME280;10386;54.314;10.022;2023-04-01T04:04:31;98735.28;;;5.74;100.00
20455;BME280;10386;54.314;10.022;2023-04-01T04:06:58;98741.28;;;5.78;100.00
20455;BME280;10386;54.314;10.022;2023-04-01T04:09:27;98740.31;;;5.79;100.00
20455;BME280;10386;54.314;10.022;2023-04-01T04:11:53;98741.28;;;5.78;100.00
20455;BME280;10386;54.314;10.022;2023-04-01T04:14:22;98756.38;;;5.69;100.00
20455;BME280;10386;54.314;10.022;2023-04-01T04:16:49;98754.13;;;5.74;100.00
20455;BME280;10386;54.314;10.022;2023-04-01T04:19:16;98735.66;;;5.70;100.00
20455;BME280;10386;54.314;10.022;2023-04-01T04:21:43;98768.84;;;5.70;100.00
20455;BME280;10386;54.314;10.022;2023-04-01T04:24:10;98775.47;;;5.66;100.00
20455;BME280;10386;54.314;10.022;2023-04-01T04:26:37;98770.13;;;5.76;100.00
20455;BME280;10386;54.314;10.022;2023-04-01T04:29:04;98771.06;;;5.65;100.00
20455;BME280;10386;54.314;10.022;2023-04-01T04:31:31;98778.66;;;5.60;100.00
20455;BME280;10386;54.314;10.022;2023-04-01T04:33:59;98782.84;;;5.53;100.00
20455;BME280;10386;54.314;10.022;2023-04-01T04:36:28;98793.00;;;5.50;100.00
20455;BME280;10386;54.314;10.022;2023-04-01T04:38:57;98796.41;;;5.52;100.00
20455;BME280;10386;54.314;10.022;2023-04-01T04:41:33;98796.91;;;5.57;100.00
20455;BME280;10386;54.314;10.022;2023-04-01T04:44:22;98807.81;;;5.55;100.00
20455;BME280;10386;54.314;10.022;2023-04-01T04:46:49;98805.84;;;5.57;100.00
20455;BME280;10386;54.314;10.022;2023-04-01T04:49:16;98825.28;;;5.50;100.00
20455;BME280;10386;54.314;10.022;2023-04-01T04:51:48;98823.31;;;5.52;100.00
20455;BME280;10386;54.314;10.022;2023-04-01T04:54:23;98860.38;;;5.48;100.00
20455;BME280;10386;54.314;10.022;2023-04-01T04:57:00;98837.28;;;5.46;100.00
20455;BME280;10386;54.314;10.022;2023-04-01T04:59:44;98832.88;;;5.45;100.00
20455;BME280;10386;54.314;10.022;2023-04-01T05:02:11;98834.09;;;5.52;100.00
20455;BME280;10386;54.314;10.022;2023-04-01T05:04:39;98826.03;;;5.52;100.00
20455;BME280;10386;54.314;10.022;2023-04-01T05:07:09;98843.63;;;5.56;100.00
20455;BME280;10386;54.314;10.022;2023-04-01T05:09:38;98849.63;;;5.48;100.00
20455;BME280;10386;54.314;10.022;2023-04-01T05:12:07;98864.31;;;5.44;100.00
20455;BME280;10386;54.314;10.022;2023-04-01T05:14:37;98856.38;;;5.43;100.00
20455;BME280;10386;54.314;10.022;2023-04-01T05:17:09;98865.03;;;5.46;100.00
20455;BME280;10386;54.314;10.022;2023-04-01T05:19:37;98863.69;;;5.52;100.00
20455;BME280;10386;54.314;10.022;2023-04-01T05:22:05;98863.06;;;5.48;100.00
20455;BME280;10386;54.314;10.022;2023-04-01T05:24:33;98864.56;;;5.41;100.00
20455;BME280;10386;54.314;10.022;2023-04-01T05:27:01;98837.06;;;5.38;100.00
20455;BME280;10386;54.314;10.022;2023-04-01T05:29:33;98866.00;;;5.45;100.00
20455;BME280;10386;54.314;10.022;2023-04-01T05:32:01;98884.38;;;5.40;100.00
20455;BME280;10386;54.314;10.022;2023-04-01T05:34:29;98880.34;;;5.35;100.00
20455;BME280;10386;54.314;10.022;2023-04-01T05:37:01;98887.31;;;5.38;100.00
20455;BME280;10386;54.314;10.022;2023-04-01T05:39:36;98893.91;;;5.34;100.00
20455;BME280;10386;54.314;10.022;2023-04-01T05:42:09;98890.88;;;5.27;100.00
20455;BME280;10386;54.314;10.022;2023-04-01T05:44:36;98890.72;;;5.39;100.00
20455;BME280;10386;54.314;10.022;2023-04-01T05:47:03;98890.88;;;5.38;100.00
20455;BME280;10386;54.314;10.022;2023-04-01T05:49:31;98890.50;;;5.32;100.00
20455;BME280;10386;54.314;10.022;2023-04-01T05:51:59;98901.25;;;5.32;100.00
20455;BME280;10386;54.314;10.022;2023-04-01T05:54:26;98898.69;;;5.30;100.00
20455;BME280;10386;54.314;10.022;2023-04-01T05:56:54;98909.56;;;5.39;100.00
20455;BME280;10386;54.314;10.022;2023-04-01T05:59:21;98915.81;;;5.40;100.00
20455;BME280;10386;54.314;10.022;2023-04-01T06:01:48;98921.06;;;5.41;100.00
20455;BME280;10386;54.314;10.022;2023-04-01T06:04:16;98915.81;;;5.40;100.00
20455;BME280;10386;54.314;10.022;2023-04-01T06:06:44;98939.41;;;5.37;100.00
20455;BME280;10386;54.314;10.022;2023-04-01T06:09:31;98924.72;;;5.40;100.00
20455;BME280;10386;54.314;10.022;2023-04-01T06:14:50;98934.41;;;5.32;100.00
20455;BME280;10386;54.314;10.022;2023-04-01T06:17:33;98943.69;;;5.39;100.00
20455;BME280;10386;54.314;10.022;2023-04-01T06:23:22;98950.06;;;5.38;100.00
20455;BME280;10386;54.314;10.022;2023-04-01T06:29:23;98962.38;;;5.40;100.00
20455;BME280;10386;54.314;10.022;2023-04-01T06:34:31;98963.84;;;5.34;100.00
20455;BME280;10386;54.314;10.022;2023-04-01T06:43:21;98996.28;;;5.32;100.00
20455;BME280;10386;54.314;10.022;2023-04-01T06:46:03;98992.84;;;5.41;100.00
20455;BME280;10386;54.314;10.022;2023-04-01T06:56:32;99003.47;;;5.32;100.00
20455;BME280;10386;54.314;10.022;2023-04-01T06:59:21;99009.47;;;5.35;100.00
20455;BME280;10386;54.314;10.022;2023-04-01T07:01:58;99003.13;;;5.36;100.00
20455;BME280;10386;54.314;10.022;2023-04-01T07:04:30;99015.47;;;5.38;100.00
20455;BME280;10386;54.314;10.022;2023-04-01T07:07:04;99001.41;;;5.35;100.00
20455;BME280;10386;54.314;10.022;2023-04-01T07:09:37;99020.50;;;5.43;100.00
20455;BME280;10386;54.314;10.022;2023-04-01T07:12:14;99019.03;;;5.50;100.00
20455;BME280;10386;54.314;10.022;2023-04-01T07:14:42;99031.84;;;5.46;100.00
20455;BME280;10386;54.314;10.022;2023-04-01T07:17:15;99034.44;;;5.37;100.00
20455;BME280;10386;54.314;10.022;2023-04-01T07:19:53;99023.03;;;5.44;100.00
20455;BME280;10386;54.314;10.022;2023-04-01T07:22:39;99033.47;;;5.49;100.00
20455;BME280;10386;54.314;10.022;2023-04-01T07:25:20;99042.75;;;5.45;100.00
20455;BME280;10386;54.314;10.022;2023-04-01T07:27:48;99048.38;;;5.42;100.00
20455;BME280;10386;54.314;10.022;2023-04-01T07:30:19;99042.50;;;5.48;100.00
20455;BME280;10386;54.314;10.022;2023-04-01T07:33:07;99059.13;;;5.42;100.00
20455;BME280;10386;54.314;10.022;2023-04-01T07:35:53;99048.47;;;5.51;100.00
20455;BME280;10386;54.314;10.022;2023-04-01T07:44:15;99061.09;;;5.40;100.00
20455;BME280;10386;54.314;10.022;2023-04-01T07:47:10;99093.63;;;5.37;100.00
20455;BME280;10386;54.314;10.022;2023-04-01T08:09:25;99129.31;;;5.39;100.00
20455;BME280;10386;54.314;10.022;2023-04-01T08:12:12;99143.00;;;5.36;100.00
20455;BME280;10386;54.314;10.022;2023-04-01T08:14:54;99149.13;;;5.38;100.00
20455;BME280;10386;54.314;10.022;2023-04-01T08:17:28;99149.13;;;5.38;100.00
20455;BME280;10386;54.314;10.022;2023-04-01T08:20:14;99155.25;;;5.40;100.00
20455;BME280;10386;54.314;10.022;2023-04-01T08:23:00;99165.38;;;5.37;100.00
20455;BME280;10386;54.314;10.022;2023-04-01T08:25:31;99176.25;;;5.24;100.00
20455;BME280;10386;54.314;10.022;2023-04-01T08:30:49;99194.44;;;5.21;100.00
20455;BME280;10386;54.314;10.022;2023-04-01T08:33:28;99199.56;;;5.24;100.00
20455;BME280;10386;54.314;10.022;2023-04-01T08:36:14;99191.69;;;5.33;100.00
20455;BME280;10386;54.314;10.022;2023-04-01T08:38:43;99178.50;;;5.41;100.00
20455;BME280;10386;54.314;10.022;2023-04-01T08:41:59;99211.78;;;5.17;100.00
20455;BME280;10386;54.314;10.022;2023-04-01T08:56:03;99232.03;;;5.33;100.00
20455;BME280;10386;54.314;10.022;2023-04-01T09:07:21;99250.53;;;5.14;100.00
20455;BME280;10386;54.314;10.022;2023-04-01T09:12:54;99271.81;;;5.17;100.00
20455;BME280;10386;54.314;10.022;2023-04-01T09:15:48;99269.22;;;5.16;100.00
20455;BME280;10386;54.314;10.022;2023-04-01T09:18:47;99283.53;;;5.16;100.00
20455;BME280;10386;54.314;10.022;2023-04-01T09:26:44;99290.31;;;4.86;100.00
20455;BME280;10386;54.314;10.022;2023-04-01T09:37:35;99342.75;;;4.91;100.00
20455;BME280;10386;54.314;10.022;2023-04-01T09:40:17;99316.97;;;4.89;100.00
20455;BME280;10386;54.314;10.022;2023-04-01T09:49:03;99348.69;;;4.84;100.00
20455;BME280;10386;54.314;10.022;2023-04-01T10:03:36;99358.78;;;4.80;100.00
20455;BME280;10386;54.314;10.022;2023-04-01T10:31:20;99407.94;;;4.82;100.00
20455;BME280;10386;54.314;10.022;2023-04-01T10:34:10;99395.66;;;4.78;100.00
20455;BME280;10386;54.314;10.022;2023-04-01T10:36:49;99418.47;;;4.73;100.00
20455;BME280;10386;54.314;10.022;2023-04-01T10:42:14;99444.47;;;4.60;100.00
20455;BME280;10386;54.314;10.022;2023-04-01T10:56:40;99464.34;;;4.57;100.00
20455;BME280;10386;54.314;10.022;2023-04-01T11:25:04;99532.56;;;4.42;100.00
20455;BME280;10386;54.314;10.022;2023-04-01T11:33:49;99546.22;;;4.52;100.00
20455;BME280;10386;54.314;10.022;2023-04-01T11:36:29;99557.19;;;4.49;100.00
20455;BME280;10386;54.314;10.022;2023-04-01T11:44:27;99577.31;;;4.56;100.00
20455;BME280;10386;54.314;10.022;2023-04-01T11:58:26;99617.59;;;4.70;100.00
20455;BME280;10386;54.314;10.022;2023-04-01T12:00:59;99632.44;;;4.75;100.00
20455;BME280;10386;54.314;10.022;2023-04-01T12:09:29;99651.72;;;4.94;100.00
20455;BME280;10386;54.314;10.022;2023-04-01T12:15:20;99686.53;;;5.10;100.00
20455;BME280;10386;54.314;10.022;2023-04-01T12:18:12;99695.44;;;4.98;100.00
20455;BME280;10386;54.314;10.022;2023-04-01T12:23:42;99722.06;;;5.15;100.00
20455;BME280;10386;54.314;10.022;2023-04-01T12:32:30;99796.47;;;4.88;100.00
20455;BME280;10386;54.314;10.022;2023-04-01T12:42:59;99850.06;;;4.91;100.00
20455;BME280;10386;54.314;10.022;2023-04-01T12:48:39;99864.25;;;5.07;100.00
20455;BME280;10386;54.314;10.022;2023-04-01T12:54:13;99909.09;;;4.92;100.00
20455;BME280;10386;54.314;10.022;2023-04-01T13:07:44;99991.34;;;5.10;100.00
20455;BME280;10386;54.314;10.022;2023-04-01T13:15:42;100024.78;;;5.20;100.00
20455;BME280;10386;54.314;10.022;2023-04-01T13:24:36;100098.41;;;4.90;100.00
20455;BME280;10386;54.314;10.022;2023-04-01T13:32:42;100129.59;;;4.92;100.00
20455;BME280;10386;54.314;10.022;2023-04-01T13:36:28;100158.41;;;4.90;100.00
20455;BME280;10386;54.314;10.022;2023-04-01T13:38:48;100179.66;;;4.95;100.00
20455;BME280;10386;54.314;10.022;2023-04-01T13:42:15;100193.13;;;4.95;100.00
20455;BME280;10386;54.314;10.022;2023-04-01T13:56:04;100278.50;;;4.76;100.00
20455;BME280;10386;54.314;10.022;2023-04-01T14:14:56;100416.63;;;4.73;100.00
20455;BME280;10386;54.314;10.022;2023-04-01T14:20:27;100446.84;;;4.61;100.00
20455;BME280;10386;54.314;10.022;2023-04-01T14:28:32;100490.94;;;4.74;100.00
20455;BME280;10386;54.314;10.022;2023-04-01T14:31:30;100503.63;;;4.72;100.00
20455;BME280;10386;54.314;10.022;2023-04-01T14:47:59;100566.94;;;4.95;100.00
20455;BME280;10386;54.314;10.022;2023-04-01T14:50:43;100613.53;;;4.95;100.00
20455;BME280;10386;54.314;10.022;2023-04-01T14:55:54;100628.34;;;4.87;100.00
20455;BME280;10386;54.314;10.022;2023-04-01T14:58:40;100649.91;;;4.85;100.00
20455;BME280;10386;54.314;10.022;2023-04-01T15:01:17;100667.72;;;4.71;100.00
20455;BME280;10386;54.314;10.022;2023-04-01T15:04:41;100676.72;;;4.70;100.00
20455;BME280;10386;54.314;10.022;2023-04-01T15:09:49;100699.88;;;4.72;100.00
20455;BME280;10386;54.314;10.022;2023-04-01T15:12:50;100719.31;;;4.60;100.00
20455;BME280;10386;54.314;10.022;2023-04-01T15:15:53;100726.41;;;4.80;100.00
20455;BME280;10386;54.314;10.022;2023-04-01T15:18:34;100744.03;;;4.85;100.00
20455;BME280;10386;54.314;10.022;2023-04-01T15:23:45;100771.63;;;4.72;100.00
20455;BME280;10386;54.314;10.022;2023-04-01T15:26:22;100781.50;;;4.71;100.00
20455;BME280;10386;54.314;10.022;2023-04-01T15:29:35;100802.84;;;4.74;100.00
20455;BME280;10386;54.314;10.022;2023-04-01T15:32:32;100799.59;;;4.68;100.00
20455;BME280;10386;54.314;10.022;2023-04-01T15:38:03;100815.66;;;4.69;100.00
20455;BME280;10386;54.314;10.022;2023-04-01T15:41:11;100820.16;;;4.69;100.00
20455;BME280;10386;54.314;10.022;2023-04-01T15:43:49;100841.28;;;4.76;100.00
20455;BME280;10386;54.314;10.022;2023-04-01T15:46:47;100839.06;;;4.86;100.00
20455;BME280;10386;54.314;10.022;2023-04-01T15:49:37;100843.25;;;4.91;100.00
20455;BME280;10386;54.314;10.022;2023-04-01T15:58:57;100871.22;;;4.87;100.00
20455;BME280;10386;54.314;10.022;2023-04-01T16:01:16;100854.97;;;4.72;100.00
20455;BME280;10386;54.314;10.022;2023-04-01T16:04:00;100889.69;;;4.76;100.00
20455;BME280;10386;54.314;10.022;2023-04-01T16:06:45;100892.97;;;4.83;100.00
20455;BME280;10386;54.314;10.022;2023-04-01T16:17:46;100944.66;;;4.89;100.00
20455;BME280;10386;54.314;10.022;2023-04-01T16:20:19;100948.09;;;4.93;100.00
20455;BME280;10386;54.314;10.022;2023-04-01T16:33:22;100973.00;;;4.58;100.00
20455;BME280;10386;54.314;10.022;2023-04-01T16:36:00;100983.75;;;4.58;100.00
20455;BME280;10386;54.314;10.022;2023-04-01T16:38:39;100994.22;;;4.64;100.00
20455;BME280;10386;54.314;10.022;2023-04-01T16:43:56;101010.44;;;4.62;100.00
20455;BME280;10386;54.314;10.022;2023-04-01T16:46:34;101009.31;;;4.68;100.00
20455;BME280;10386;54.314;10.022;2023-04-01T16:56:54;101050.63;;;4.65;100.00
20455;BME280;10386;54.314;10.022;2023-04-01T16:59:27;101061.00;;;4.54;100.00
20455;BME280;10386;54.314;10.022;2023-04-01T17:02:23;101062.25;;;4.46;100.00
20455;BME280;10386;54.314;10.022;2023-04-01T17:05:00;101058.69;;;4.45;100.00
20455;BME280;10386;54.314;10.022;2023-04-01T17:13:29;101092.63;;;4.48;100.00
20455;BME280;10386;54.314;10.022;2023-04-01T17:30:06;101128.72;;;4.21;100.00
20455;BME280;10386;54.314;10.022;2023-04-01T17:35:43;101151.31;;;4.15;100.00
20455;BME280;10386;54.314;10.022;2023-04-01T17:44:32;101163.56;;;4.01;100.00
20455;BME280;10386;54.314;10.022;2023-04-01T17:52:40;101180.16;;;3.89;100.00
20455;BME280;10386;54.314;10.022;2023-04-01T17:55:25;101189.97;;;3.90;100.00
20455;BME280;10386;54.314;10.022;2023-04-01T18:06:56;101208.50;;;3.73;100.00
20455;BME280;10386;54.314;10.022;2023-04-01T18:17:57;101249.44;;;3.55;100.00
20455;BME280;10386;54.314;10.022;2023-04-01T18:20:33;101267.97;;;3.63;100.00
20455;BME280;10386;54.314;10.022;2023-04-01T18:26:10;101289.44;;;3.63;100.00
20455;BME280;10386;54.314;10.022;2023-04-01T18:28:43;101293.38;;;3.53;100.00
20455;BME280;10386;54.314;10.022;2023-04-01T18:31:21;101301.44;;;3.53;100.00
20455;BME280;10386;54.314;10.022;2023-04-01T18:38:56;101318.13;;;3.36;100.00
20455;BME280;10386;54.314;10.022;2023-04-01T18:41:32;101332.94;;;3.48;100.00
20455;BME280;10386;54.314;10.022;2023-04-01T18:44:26;101332.25;;;3.41;100.00
20455;BME280;10386;54.314;10.022;2023-04-01T18:47:05;101343.78;;;3.45;100.00
20455;BME280;10386;54.314;10.022;2023-04-01T18:49:45;101338.50;;;3.42;100.00
20455;BME280;10386;54.314;10.022;2023-04-01T18:52:31;101351.25;;;3.35;100.00
20455;BME280;10386;54.314;10.022;2023-04-01T18:57:52;101374.22;;;3.44;100.00
20455;BME280;10386;54.314;10.022;2023-04-01T19:00:21;101374.38;;;3.39;100.00
20455;BME280;10386;54.314;10.022;2023-04-01T19:03:01;101379.97;;;3.32;100.00
20455;BME280;10386;54.314;10.022;2023-04-01T19:05:34;101386.16;;;3.34;100.00
20455;BME280;10386;54.314;10.022;2023-04-01T19:08:30;101403.75;;;3.44;100.00
20455;BME280;10386;54.314;10.022;2023-04-01T19:11:04;101395.00;;;3.37;100.00
20455;BME280;10386;54.314;10.022;2023-04-01T19:17:15;101408.31;;;3.40;100.00
20455;BME280;10386;54.314;10.022;2023-04-01T19:22:35;101416.25;;;3.43;100.00
20455;BME280;10386;54.314;10.022;2023-04-01T19:25:44;101424.53;;;3.37;100.00
20455;BME280;10386;54.314;10.022;2023-04-01T19:28:07;101423.94;;;3.28;100.00
20455;BME280;10386;54.314;10.022;2023-04-01T19:36:59;101435.59;;;3.27;100.00
20455;BME280;10386;54.314;10.022;2023-04-01T19:47:51;101465.06;;;3.28;100.00
20455;BME280;10386;54.314;10.022;2023-04-01T19:50:42;101464.97;;;3.31;100.00
20455;BME280;10386;54.314;10.022;2023-04-01T19:53:21;101474.97;;;3.26;100.00
20455;BME280;10386;54.314;10.022;2023-04-01T19:56:03;101471.09;;;3.35;100.00
20455;BME280;10386;54.314;10.022;2023-04-01T20:04:16;101478.09;;;3.40;100.00
20455;BME280;10386;54.314;10.022;2023-04-01T20:10:00;101484.97;;;3.21;100.00
20455;BME280;10386;54.314;10.022;2023-04-01T20:12:42;101499.03;;;3.29;100.00
20455;BME280;10386;54.314;10.022;2023-04-01T20:15:37;101495.69;;;3.21;100.00
20455;BME280;10386;54.314;10.022;2023-04-01T20:18:13;101505.06;;;3.36;100.00
20455;BME280;10386;54.314;10.022;2023-04-01T20:20:53;101506.03;;;3.33;100.00
20455;BME280;10386;54.314;10.022;2023-04-01T20:23:43;101511.34;;;3.35;100.00
20455;BME280;10386;54.314;10.022;2023-04-01T20:26:13;101516.13;;;3.25;100.00
20455;BME280;10386;54.314;10.022;2023-04-01T20:28:48;101520.69;;;3.22;100.00
20455;BME280;10386;54.314;10.022;2023-04-01T20:31:29;101531.84;;;3.37;100.00
20455;BME280;10386;54.314;10.022;2023-04-01T20:34:02;101534.53;;;3.37;100.00
20455;BME280;10386;54.314;10.022;2023-04-01T20:36:57;101527.41;;;3.36;100.00
20455;BME280;10386;54.314;10.022;2023-04-01T20:48:59;101535.59;;;3.32;100.00
20455;BME280;10386;54.314;10.022;2023-04-01T20:51:23;101517.91;;;3.26;100.00
20455;BME280;10386;54.314;10.022;2023-04-01T21:02:31;101525.78;;;3.31;100.00
20455;BME280;10386;54.314;10.022;2023-04-01T21:07:54;101529.38;;;3.30;100.00
20455;BME280;10386;54.314;10.022;2023-04-01T21:19:42;101572.56;;;3.22;100.00
20455;BME280;10386;54.314;10.022;2023-04-01T21:27:51;101579.50;;;3.29;100.00
20455;BME280;10386;54.314;10.022;2023-04-01T21:36:02;101595.22;;;3.12;100.00
20455;BME280;10386;54.314;10.022;2023-04-01T21:38:56;101601.09;;;3.25;100.00
20455;BME280;10386;54.314;10.022;2023-04-01T21:44:56;101603.88;;;3.22;100.00
20455;BME280;10386;54.314;10.022;2023-04-01T21:53:06;101615.75;;;3.13;100.00
20455;BME280;10386;54.314;10.022;2023-04-01T22:09:18;101650.75;;;3.09;100.00
20455;BME280;10386;54.314;10.022;2023-04-01T22:14:34;101653.41;;;3.10;100.00
20455;BME280;10386;54.314;10.022;2023-04-01T22:17:27;101659.53;;;3.14;100.00
20455;BME280;10386;54.314;10.022;2023-04-01T22:20:10;101659.59;;;3.12;100.00
20455;BME280;10386;54.314;10.022;2023-04-01T22:25:51;101672.75;;;3.21;100.00
20455;BME280;10386;54.314;10.022;2023-04-01T22:28:36;101679.22;;;3.14;100.00
20455;BME280;10386;54.314;10.022;2023-04-01T22:31:06;101688.19;;;3.13;100.00